Time;durP1;ratioP1;P1;durP2;ratioP2;P2;SDS_P1;SDS_P2;PMS_P1;PMS_P2;Temp;Humidity;BMP_temperature;BMP_pressure;BME280_temperature;BME280_humidity;BME280_pressure;Samples;Min_cycle;Max_cycle;Signal;HPM_P1;HPM_P2
2022/03/11 00:02:11;;;;;;;21.33;19.15;;;;;;;12.59;59.25;98869.63;4915671;29;20111;-50
2022/03/11 00:04:37;;;;;;;25.63;22.92;;;;;;;12.43;59.14;98852.47;4917414;29;20036;-48
2022/03/11 00:07:03;;;;;;;35.38;31.70;;;;;;;12.30;59.38;98879.66;4917355;29;20020;-49
2022/03/11 00:09:29;;;;;;;30.48;27.45;;;;;;;12.23;60.68;98872.78;4917356;29;20106;-49
2022/03/11 00:11:54;;;;;;;17.27;14.65;;;;;;;12.19;61.23;98843.44;4916077;29;20514;-50
2022/03/11 00:14:20;;;;;;;22.48;15.68;;;;;;;12.13;61.23;98862.69;4916931;29;20052;-49
2022/03/11 00:16:47;;;;;;;11.45;8.77;;;;;;;12.08;60.45;98871.19;4917187;29;20075;-50
2022/03/11 00:19:12;;;;;;;11.80;8.38;;;;;;;12.14;60.58;98854.59;4917217;29;20107;-48
2022/03/11 00:21:38;;;;;;;9.52;8.27;;;;;;;12.27;60.07;98851.09;4931595;29;20116;-50
2022/03/11 00:24:05;;;;;;;12.65;9.23;;;;;;;12.32;59.49;98842.63;4917098;29;20075;-50
2022/03/11 00:26:32;;;;;;;11.05;8.15;;;;;;;12.45;59.03;98873.34;4917038;29;20031;-50
2022/03/11 00:28:58;;;;;;;12.05;8.95;;;;;;;12.47;57.74;98850.25;4917042;29;20482;-49
2022/03/11 00:31:25;;;;;;;13.32;9.38;;;;;;;12.34;57.84;98845.84;4916967;29;20048;-49
2022/03/11 00:33:50;;;;;;;14.68;8.95;;;;;;;12.31;58.68;98830.47;4916916;29;20079;-50
2022/03/11 00:36:16;;;;;;;9.70;7.43;;;;;;;12.36;57.58;98857.78;4916784;29;20434;-50
2022/03/11 00:38:42;;;;;;;10.00;8.07;;;;;;;12.44;57.51;98864.63;4915516;29;20059;-49
2022/03/11 00:41:08;;;;;;;10.07;8.15;;;;;;;12.54;57.07;98843.16;4916779;29;20581;-49
2022/03/11 00:43:34;;;;;;;10.35;7.28;;;;;;;12.63;56.81;98867.41;4915471;29;20074;-49
2022/03/11 00:45:59;;;;;;;10.65;7.93;;;;;;;12.55;56.83;98861.34;4916669;29;20051;-49
2022/03/11 00:48:26;;;;;;;12.32;8.02;;;;;;;12.53;57.67;98858.09;4916690;29;20036;-50
2022/03/11 00:50:51;;;;;;;9.75;6.60;;;;;;;12.56;56.78;98862.97;4915327;29;20020;-50
2022/03/11 00:53:17;;;;;;;8.23;7.20;;;;;;;12.62;58.14;98860.53;4915279;29;20028;-50
2022/03/11 00:55:43;;;;;;;9.63;7.30;;;;;;;12.62;58.50;98860.53;4916408;29;20071;-49
2022/03/11 00:58:09;;;;;;;8.85;6.82;;;;;;;12.62;58.64;98860.53;4916526;29;20032;-49
2022/03/11 01:00:34;;;;;;;9.13;7.00;;;;;;;12.52;59.73;98863.59;4915080;29;20024;-49
2022/03/11 01:03:01;;;;;;;10.45;7.97;;;;;;;12.33;60.47;98860.00;4916407;29;20024;-49
2022/03/11 01:05:26;;;;;;;12.52;7.05;;;;;;;12.16;61.34;98863.09;4915077;29;20070;-49
2022/03/11 01:07:53;;;;;;;9.38;7.47;;;;;;;12.04;62.09;98859.47;4916300;29;20060;-49
2022/03/11 01:10:19;;;;;;;9.00;6.70;;;;;;;11.93;62.95;98854.84;4915093;29;20032;-49
2022/03/11 01:12:45;;;;;;;11.88;7.32;;;;;;;11.94;62.82;98844.13;4914899;29;20024;-49
2022/03/11 01:15:12;;;;;;;9.23;6.95;;;;;;;11.79;61.64;98846.94;4915805;29;20414;-49
2022/03/11 01:17:38;;;;;;;10.90;6.68;;;;;;;11.69;62.09;98849.19;4916154;29;20067;-48
2022/03/11 01:20:06;;;;;;;6.72;5.93;;;;;;;11.74;61.60;98841.47;4916110;29;20040;-49
2022/03/11 01:22:33;;;;;;;10.50;7.35;;;;;;;11.92;60.75;98835.63;4914840;29;20024;-49
2022/03/11 01:24:59;;;;;;;12.00;7.32;;;;;;;11.91;60.51;98835.81;4916031;29;20107;-49
2022/03/11 01:27:25;;;;;;;10.30;7.05;;;;;;;11.95;60.45;98832.59;4916012;29;20024;-49
2022/03/11 01:29:51;;;;;;;8.73;6.68;;;;;;;12.12;60.65;98832.16;4916021;29;20039;-49
2022/03/11 01:32:17;;;;;;;8.32;6.32;;;;;;;12.29;59.74;98819.34;4915985;29;20024;-49
2022/03/11 01:34:43;;;;;;;12.60;6.20;;;;;;;12.37;59.44;98827.00;4915911;29;20032;-48
2022/03/11 01:37:09;;;;;;;8.02;6.07;;;;;;;12.48;59.36;98823.72;4915908;29;20080;-49
2022/03/11 01:39:34;;;;;;;8.55;5.88;;;;;;;12.63;58.69;98814.75;4915869;29;20024;-49
2022/03/11 01:42:00;;;;;;;6.93;5.85;;;;;;;12.77;57.74;98819.72;4915849;29;20443;-49
2022/03/11 01:44:27;;;;;;;11.90;7.22;;;;;;;12.77;58.03;98821.56;4915814;29;20024;-49
2022/03/11 01:46:53;;;;;;;8.70;6.40;;;;;;;12.71;57.76;98825.81;4915752;29;20111;-49
2022/03/11 01:49:19;;;;;;;10.45;6.53;;;;;;;12.77;57.47;98822.34;4915756;29;20020;-48
2022/03/11 01:51:46;;;;;;;9.73;6.70;;;;;;;12.78;57.57;98820.53;4915624;29;20085;-49
2022/03/11 01:54:12;;;;;;;9.93;6.57;;;;;;;12.79;57.23;98816.88;4915646;29;20032;-49
2022/03/11 01:56:39;;;;;;;12.45;6.88;;;;;;;12.71;56.74;98811.88;4914345;29;20106;-50
2022/03/11 01:59:06;;;;;;;10.77;6.63;;;;;;;12.63;57.12;98799.75;4915572;29;20064;-49
2022/03/11 02:01:33;;;;;;;9.55;7.13;;;;;;;12.68;57.78;98807.03;4915592;29;20016;-49
2022/03/11 02:03:59;;;;;;;19.20;10.57;;;;;;;12.65;57.07;98808.25;4915577;29;20087;-49
2022/03/11 02:06:26;;;;;;;12.82;7.00;;;;;;;12.56;57.06;98794.53;4915549;29;20028;-48
2022/03/11 02:08:54;;;;;;;9.88;7.35;;;;;;;12.52;57.65;98805.69;4914227;29;20039;-48
2022/03/11 02:11:20;;;;;;;8.45;6.72;;;;;;;12.61;57.19;98804.41;4914212;29;20120;-49
2022/03/11 02:13:57;;;;;;;7.63;6.05;;;;;;;12.71;57.20;98796.88;4913962;29;20131;-49
2022/03/11 02:16:26;;;;;;;6.88;6.03;;;;;;;12.95;56.38;98797.13;4915420;29;20025;-48
2022/03/11 02:18:52;;;;;;;9.18;6.45;;;;;;;13.10;55.80;98794.19;4915517;29;20106;-49
2022/03/11 02:21:20;;;;;;;8.38;6.10;;;;;;;13.07;55.65;98781.44;4915421;29;20035;-49
2022/03/11 02:23:47;;;;;;;6.68;4.60;;;;;;;13.08;54.39;98796.22;4915448;29;20058;-49
2022/03/11 02:26:14;;;;;;;8.40;6.10;;;;;;;12.95;55.36;98800.56;4917883;29;20067;-49
2022/03/11 02:28:40;;;;;;;7.90;5.32;;;;;;;13.02;55.08;98802.34;4917868;29;20036;-49
2022/03/11 02:31:06;;;;;;;6.88;5.20;;;;;;;13.13;54.42;98799.84;4919090;29;20529;-49
2022/03/11 02:33:32;;;;;;;9.02;5.72;;;;;;;13.23;54.48;98796.72;4917855;29;20024;-49
2022/03/11 02:35:57;;;;;;;10.20;4.95;;;;;;;13.26;53.89;98788.41;4918952;29;20076;-49
2022/03/11 02:38:23;;;;;;;6.82;4.90;;;;;;;13.27;53.67;98781.31;4918942;29;20028;-49
2022/03/11 02:40:49;;;;;;;11.20;5.20;;;;;;;13.38;53.32;98775.34;4918974;29;20024;-49
2022/03/11 02:43:15;;;;;;;6.82;5.00;;;;;;;13.38;53.29;98786.72;4917584;29;20032;-49
2022/03/11 02:45:41;;;;;;;12.57;5.47;;;;;;;13.49;53.06;98787.03;4917538;29;20402;-49
2022/03/11 02:48:06;;;;;;;9.27;4.97;;;;;;;13.52;52.15;98789.22;4918860;29;20103;-49
2022/03/11 02:50:32;;;;;;;8.05;5.35;;;;;;;13.47;52.55;98787.25;4918756;29;20406;-49
2022/03/11 02:52:58;;;;;;;12.88;6.35;;;;;;;13.54;52.46;98785.38;4917484;29;20414;-49
2022/03/11 02:55:23;;;;;;;10.10;4.88;;;;;;;13.59;51.59;98788.13;4918614;29;20028;-49
2022/03/11 02:57:49;;;;;;;7.05;4.80;;;;;;;13.59;52.07;98788.13;4918692;29;20028;-49
2022/03/11 03:00:15;;;;;;;9.43;5.32;;;;;;;13.62;52.01;98778.97;4918627;29;20167;-49
2022/03/11 03:02:41;;;;;;;9.43;5.45;;;;;;;13.70;52.16;98768.19;4917257;29;20123;-49
2022/03/11 03:05:08;;;;;;;7.55;4.72;;;;;;;13.94;51.24;98761.22;4917236;29;20036;-50
2022/03/11 03:07:34;;;;;;;9.20;6.95;;;;;;;14.07;50.84;98764.75;4917098;29;20303;-49
2022/03/11 03:09:59;;;;;;;9.18;4.75;;;;;;;13.98;50.21;98770.31;4918459;29;20100;-49
2022/03/11 03:12:26;;;;;;;7.30;5.28;;;;;;;13.91;50.34;98769.56;4918426;29;20576;-49
2022/03/11 03:14:52;;;;;;;7.93;5.03;;;;;;;13.90;50.44;98761.88;4918045;29;20055;-49
2022/03/11 03:17:18;;;;;;;6.53;4.38;;;;;;;13.84;50.22;98768.03;4918260;29;20117;-49
2022/03/11 03:19:47;;;;;;;9.20;5.00;;;;;;;13.69;50.97;98761.28;4916935;29;20031;-49
2022/03/11 03:22:14;;;;;;;8.88;5.88;;;;;;;13.56;51.04;98762.22;4918192;29;20021;-49
2022/03/11 03:24:40;;;;;;;6.55;4.90;;;;;;;13.39;51.67;98764.59;4918166;29;20046;-49
2022/03/11 03:27:05;;;;;;;7.32;5.03;;;;;;;13.34;51.79;98780.25;4916853;29;20024;-48
2022/03/11 03:29:33;;;;;;;6.63;4.70;;;;;;;13.29;51.59;98769.53;4918081;29;20029;-49
2022/03/11 03:31:58;;;;;;;8.23;5.15;;;;;;;13.19;52.14;98772.63;4916725;29;20430;-49
2022/03/11 03:34:30;;;;;;;10.55;5.10;;;;;;;13.16;52.37;98772.28;4917933;29;20021;-49
2022/03/11 03:37:01;;;;;;;7.15;5.35;;;;;;;13.25;52.34;98772.81;4915543;29;20034;-49
2022/03/11 03:39:27;;;;;;;7.88;5.53;;;;;;;13.19;52.33;98775.25;4917964;29;20032;-49
2022/03/11 03:41:54;;;;;;;9.48;5.30;;;;;;;13.27;52.43;98768.91;4916591;29;20092;-49
2022/03/11 03:44:21;;;;;;;8.18;6.35;;;;;;;13.27;52.91;98773.41;4917814;29;20067;-48
2022/03/11 03:46:47;;;;;;;7.50;5.63;;;;;;;13.24;52.32;98766.72;4916461;29;20029;-50
2022/03/11 03:49:14;;;;;;;11.55;6.20;;;;;;;13.23;52.87;98762.47;4917759;29;20025;-49
2022/03/11 03:51:41;;;;;;;8.80;6.35;;;;;;;13.09;52.87;98753.06;4917713;29;20061;-49
2022/03/11 03:54:10;;;;;;;9.00;7.00;;;;;;;13.03;53.01;98769.72;4917675;29;20028;-49
2022/03/11 03:56:37;;;;;;;9.85;6.53;;;;;;;12.93;53.20;98767.56;4916235;29;20092;-50
2022/03/11 03:59:04;;;;;;;8.65;6.63;;;;;;;12.95;53.24;98753.16;4917566;29;20395;-49
2022/03/11 04:01:40;;;;;;;12.05;6.68;;;;;;;12.90;53.63;98747.72;4917472;29;20032;-49
2022/03/11 04:04:07;;;;;;;7.40;6.43;;;;;;;12.93;53.58;98742.03;4917570;29;20036;-50
2022/03/11 04:06:33;;;;;;;8.27;7.20;;;;;;;12.97;54.11;98748.47;4916154;29;20028;-49
2022/03/11 04:09:00;;;;;;;10.45;7.40;;;;;;;13.11;53.82;98746.53;4917381;29;20028;-50
2022/03/11 04:11:28;;;;;;;8.27;7.13;;;;;;;13.02;53.13;98733.84;4917283;29;20032;-48
2022/03/11 04:13:55;;;;;;;9.40;6.70;;;;;;;12.92;53.51;98742.25;4915815;29;20048;-50
2022/03/11 04:16:21;;;;;;;7.97;6.50;;;;;;;12.99;53.56;98738.53;4915963;29;20802;-50
2022/03/11 04:18:48;;;;;;;12.73;7.43;;;;;;;12.98;53.22;98736.13;4915979;29;20039;-49
2022/03/11 04:21:14;;;;;;;7.30;5.72;;;;;;;13.04;53.61;98743.19;4917160;29;20047;-49
2022/03/11 04:23:41;;;;;;;8.85;6.45;;;;;;;13.16;53.08;98748.56;4917177;29;20096;-49
2022/03/11 04:26:07;;;;;;;8.57;6.72;;;;;;;13.15;53.31;98745.09;4915815;29;20032;-49
2022/03/11 04:28:33;;;;;;;10.30;6.75;;;;;;;13.06;53.10;98742.94;4915712;29;20066;-49
2022/03/11 04:30:59;;;;;;;14.25;6.70;;;;;;;13.04;52.89;98747.63;4915691;29;20071;-49
2022/03/11 04:33:26;;;;;;;7.72;5.45;;;;;;;13.06;52.82;98746.41;4915676;29;20028;-49
2022/03/11 04:35:53;;;;;;;11.40;7.20;;;;;;;13.03;52.86;98746.03;4915524;29;20561;-50
2022/03/11 04:38:18;;;;;;;10.35;6.25;;;;;;;13.02;53.01;98749.66;4916847;29;20525;-49
2022/03/11 04:40:44;;;;;;;8.25;5.95;;;;;;;13.06;52.96;98750.84;4915516;29;20064;-50
2022/03/11 04:43:10;;;;;;;9.13;5.78;;;;;;;12.98;52.72;98731.66;4916749;29;20034;-49
2022/03/11 04:45:35;;;;;;;12.77;6.55;;;;;;;12.86;53.30;98746.53;4916707;29;20028;-49
2022/03/11 04:48:01;;;;;;;13.85;7.18;;;;;;;12.82;52.69;98747.16;4916470;29;20028;-49
2022/03/11 04:50:27;;;;;;;11.00;6.25;;;;;;;12.76;53.11;98741.75;4916632;29;20071;-49
2022/03/11 04:52:54;;;;;;;20.05;7.15;;;;;;;12.81;53.52;98743.72;4916615;29;20027;-50
2022/03/11 04:55:20;;;;;;;18.85;8.27;;;;;;;12.84;52.98;98734.59;4916473;29;20017;-49
2022/03/11 04:57:45;;;;;;;7.82;6.03;;;;;;;12.85;52.61;98731.75;4916530;29;20043;-49
2022/03/11 05:00:12;;;;;;;12.45;7.00;;;;;;;13.03;52.71;98719.66;4915128;29;20498;-50
2022/03/11 05:02:44;;;;;;;10.60;7.00;;;;;;;13.20;52.53;98712.84;4916432;29;20470;-49
2022/03/11 05:05:11;;;;;;;15.60;7.07;;;;;;;13.29;52.21;98713.38;4916387;29;20035;-50
2022/03/11 05:07:37;;;;;;;10.80;7.00;;;;;;;13.39;51.73;98717.13;4915149;29;20524;-50
2022/03/11 05:10:04;;;;;;;7.72;5.30;;;;;;;13.39;51.09;98706.59;4916316;29;20024;-49
2022/03/11 05:12:31;;;;;;;10.73;7.43;;;;;;;13.39;51.14;98711.06;4916231;29;20134;-50
2022/03/11 05:14:57;;;;;;;9.10;6.65;;;;;;;13.48;51.14;98711.59;4915911;29;20122;-49
2022/03/11 05:17:23;;;;;;;10.27;5.97;;;;;;;13.44;50.88;98716.50;4916132;29;20045;-49
2022/03/11 05:19:49;;;;;;;14.95;8.40;;;;;;;13.27;51.55;98708.31;4914818;29;20119;-49
2022/03/11 05:22:15;;;;;;;9.75;6.25;;;;;;;13.37;50.97;98706.00;4916059;29;20088;-50
2022/03/11 05:24:40;;;;;;;11.05;6.32;;;;;;;13.40;50.05;98704.78;4916091;29;20038;-49
2022/03/11 05:27:07;;;;;;;12.13;7.63;;;;;;;13.38;50.01;98707.63;4915943;29;20038;-49
2022/03/11 05:29:37;;;;;;;6.18;4.95;;;;;;;13.28;49.93;98706.47;4916028;29;20031;-49
2022/03/11 05:32:03;;;;;;;10.10;6.65;;;;;;;13.15;50.54;98695.03;4914634;29;20111;-49
2022/03/11 05:34:29;;;;;;;9.75;5.47;;;;;;;13.15;49.88;98696.88;4914541;29;20067;-50
2022/03/11 05:36:55;;;;;;;11.30;6.25;;;;;;;13.13;50.46;98685.72;4915913;29;20020;-50
2022/03/11 05:39:21;;;;;;;14.45;8.05;;;;;;;13.18;50.15;98697.25;4914544;29;20039;-50
2022/03/11 05:41:46;;;;;;;7.63;4.75;;;;;;;13.08;49.25;98688.19;4915840;29;20028;-50
2022/03/11 05:44:13;;;;;;;10.88;4.72;;;;;;;12.96;49.73;98688.91;4916076;29;20508;-50
2022/03/11 05:46:39;;;;;;;10.82;5.13;;;;;;;12.97;49.72;98689.72;4914447;29;20403;-49
2022/03/11 05:49:05;;;;;;;7.43;5.18;;;;;;;13.08;49.91;98678.50;4915733;29;20036;-50
2022/03/11 05:51:30;;;;;;;10.73;4.82;;;;;;;13.14;49.73;98688.16;4915754;29;20080;-49
2022/03/11 05:53:56;;;;;;;9.27;4.90;;;;;;;13.07;49.28;98670.78;4915689;29;20039;-50
2022/03/11 05:56:22;;;;;;;13.27;6.28;;;;;;;12.86;49.96;98685.97;4914315;29;20024;-50
2022/03/11 05:58:49;;;;;;;10.70;6.95;;;;;;;12.77;51.08;98687.25;4915642;29;20024;-49
2022/03/11 06:01:16;;;;;;;19.55;8.68;;;;;;;12.79;50.91;98707.06;4913650;29;20028;-49
2022/03/11 06:03:42;;;;;;;9.75;5.10;;;;;;;12.89;50.48;98703.97;4915649;29;20024;-49
2022/03/11 06:06:07;;;;;;;21.33;9.57;;;;;;;12.97;50.78;98700.25;4915602;29;20390;-49
2022/03/11 06:08:33;;;;;;;27.38;12.63;;;;;;;13.09;50.19;98710.91;4915564;29;20032;-50
2022/03/11 06:10:59;;;;;;;12.18;5.28;;;;;;;13.13;49.47;98709.44;4914190;29;20095;-50
2022/03/11 06:13:25;;;;;;;19.10;11.20;;;;;;;13.06;49.79;98700.78;4915394;29;20024;-49
2022/03/11 06:15:50;;;;;;;13.70;9.48;;;;;;;12.95;50.67;98710.19;4915448;29;20031;-50
2022/03/11 06:18:18;;;;;;;33.50;23.42;;;;;;;12.91;50.39;98709.81;4915506;29;20091;-49
2022/03/11 06:20:45;;;;;;;32.45;16.25;;;;;;;12.83;51.33;98709.28;4915468;29;20032;-49
2022/03/11 06:23:11;;;;;;;8.02;5.95;;;;;;;12.86;50.35;98703.56;4914220;29;20409;-49
2022/03/11 06:25:36;;;;;;;14.25;7.97;;;;;;;12.74;50.74;98695.59;4914138;29;20040;-50
2022/03/11 06:28:03;;;;;;;7.35;5.18;;;;;;;12.70;50.56;98710.19;4915473;29;20451;-49
2022/03/11 06:30:29;;;;;;;19.40;10.45;;;;;;;12.57;51.43;98711.06;4915440;29;20032;-50
2022/03/11 06:32:54;;;;;;;14.27;7.60;;;;;;;12.61;51.38;98714.91;4915401;29;20111;-50
2022/03/11 06:35:20;;;;;;;11.70;6.47;;;;;;;12.55;51.31;98713.91;4915283;29;20522;-49
2022/03/11 06:37:50;;;;;;;11.73;6.45;;;;;;;12.54;51.57;98722.84;4915293;29;20566;-50
2022/03/11 06:40:17;;;;;;;10.50;6.05;;;;;;;12.58;51.54;98721.41;4915303;29;20040;-49
2022/03/11 06:42:44;;;;;;;11.45;7.43;;;;;;;12.52;51.68;98729.34;4915295;29;20047;-50
2022/03/11 06:45:11;;;;;;;13.00;6.03;;;;;;;12.51;52.17;98731.16;4913909;29;20029;-49
2022/03/11 06:47:39;;;;;;;12.52;7.88;;;;;;;12.45;52.17;98741.72;4915270;29;20032;-49
2022/03/11 06:50:06;;;;;;;12.30;7.53;;;;;;;12.51;52.72;98746.16;4915245;29;20021;-50
2022/03/11 06:52:32;;;;;;;14.52;8.40;;;;;;;12.62;52.08;98752.59;4915187;29;20035;-49
2022/03/11 06:54:57;;;;;;;20.45;9.45;;;;;;;12.68;52.39;98754.38;4915112;29;20032;-49
2022/03/11 06:57:23;;;;;;;15.23;6.75;;;;;;;12.63;51.82;98762.09;4913875;29;20092;-49
2022/03/11 06:59:50;;;;;;;12.38;6.05;;;;;;;12.48;52.47;98757.91;4913819;29;20024;-49
2022/03/11 07:02:17;;;;;;;8.95;6.18;;;;;;;12.53;52.54;98758.06;4915080;29;20028;-49
2022/03/11 07:04:43;;;;;;;9.50;5.78;;;;;;;12.62;52.28;98756.00;4915101;29;20511;-49
2022/03/11 07:07:09;;;;;;;11.50;7.18;;;;;;;12.63;52.53;98762.09;4915060;29;20020;-49
2022/03/11 07:09:35;;;;;;;10.73;7.15;;;;;;;12.62;53.34;98763.13;4915027;29;20032;-50
2022/03/11 07:12:02;;;;;;;10.82;7.38;;;;;;;12.61;53.90;98764.91;4915628;29;20017;-49
2022/03/11 07:14:35;;;;;;;16.35;9.13;;;;;;;12.51;54.44;98749.56;4918093;29;20479;-49
2022/03/11 07:17:10;;;;;;;17.67;9.65;;;;;;;12.63;55.43;98747.09;4917059;29;20032;-49
2022/03/11 07:19:35;;;;;;;11.73;7.15;;;;;;;12.70;53.15;98742.59;4918357;29;20036;-49
2022/03/11 07:22:04;;;;;;;10.52;8.40;;;;;;;12.79;52.40;98751.84;4916913;29;20411;-49
2022/03/11 07:24:30;;;;;;;15.18;10.27;;;;;;;12.80;52.46;98742.13;4916922;29;20036;-49
2022/03/11 07:26:56;;;;;;;20.42;9.98;;;;;;;12.84;52.40;98745.13;4918159;29;20028;-50
2022/03/11 07:29:21;;;;;;;11.27;7.22;;;;;;;12.97;52.46;98751.09;4918139;29;20379;-50
2022/03/11 07:31:47;;;;;;;14.13;8.25;;;;;;;13.13;51.88;98754.25;4918076;29;20035;-49
2022/03/11 07:34:13;;;;;;;10.77;6.53;;;;;;;13.25;50.81;98755.16;4918083;29;20107;-50
2022/03/11 07:36:39;;;;;;;16.02;7.75;;;;;;;12.94;51.48;98759.47;4916645;29;20028;-49
2022/03/11 07:39:06;;;;;;;13.18;8.50;;;;;;;12.90;52.01;98763.53;4917951;29;20043;-50
2022/03/11 07:41:33;;;;;;;14.15;7.90;;;;;;;13.00;51.98;98742.00;4917890;29;20498;-49
2022/03/11 07:43:59;;;;;;;24.52;13.05;;;;;;;13.19;51.99;98746.28;4917886;29;20045;-49
2022/03/11 07:46:27;;;;;;;9.45;6.55;;;;;;;13.64;50.41;98734.72;4917770;29;20060;-50
2022/03/11 07:48:54;;;;;;;17.25;9.77;;;;;;;14.39;49.10;98723.13;4917749;29;20028;-50
2022/03/11 07:51:20;;;;;;;13.50;7.68;;;;;;;14.90;48.04;98726.25;4917743;29;20028;-49
2022/03/11 07:53:46;;;;;;;11.98;7.05;;;;;;;15.15;46.81;98721.59;4917717;29;20514;-49
2022/03/11 07:56:15;;;;;;;9.55;6.47;;;;;;;15.46;46.08;98724.91;4917609;29;20107;-50
2022/03/11 07:58:41;;;;;;;14.75;7.18;;;;;;;16.35;43.80;98710.56;4917629;29;20027;-50
2022/03/11 08:01:12;;;;;;;14.27;7.47;;;;;;;17.18;41.86;98705.59;4916264;29;20038;-50
2022/03/11 08:03:40;;;;;;;546.97;420.50;;;;;;;17.49;41.15;98711.38;4916220;29;20510;-50
2022/03/11 08:06:10;;;;;;;611.22;419.90;;;;;;;17.81;40.06;98718.66;4917449;29;20039;-49
2022/03/11 08:08:37;;;;;;;699.85;485.83;;;;;;;18.32;39.55;98704.13;4917492;29;20028;-50
2022/03/11 08:11:03;;;;;;;237.90;155.68;;;;;;;18.54;38.52;98712.06;4917357;29;20034;-50
2022/03/11 08:13:29;;;;;;;361.90;259.23;;;;;;;19.00;38.09;98700.25;4917040;29;20028;-50
2022/03/11 08:15:55;;;;;;;472.65;348.98;;;;;;;18.49;38.19;98704.06;4917238;29;20025;-50
2022/03/11 08:18:21;;;;;;;176.73;112.57;;;;;;;17.85;39.02;98693.25;4917213;29;20028;-51
2022/03/11 08:20:48;;;;;;;629.83;451.65;;;;;;;17.27;40.52;98693.53;4915865;29;20031;-50
2022/03/11 08:23:14;;;;;;;475.10;317.58;;;;;;;17.04;41.54;98696.38;4916581;29;20024;-50
2022/03/11 08:25:40;;;;;;;302.83;201.80;;;;;;;17.02;40.96;98696.59;4917100;29;20020;-50
2022/03/11 08:28:10;;;;;;;473.58;343.45;;;;;;;17.12;40.98;98688.84;4917100;29;20028;-50
2022/03/11 08:30:37;;;;;;;134.57;94.13;;;;;;;17.17;40.74;98699.50;4917087;29;20249;-50
2022/03/11 08:33:04;;;;;;;118.50;90.05;;;;;;;17.43;40.31;98704.38;4916968;29;20028;-50
2022/03/11 08:35:30;;;;;;;248.98;173.38;;;;;;;17.43;40.88;98696.41;4915538;29;20115;-50
2022/03/11 08:37:57;;;;;;;544.75;381.83;;;;;;;17.27;41.17;98698.06;4915540;29;20123;-50
2022/03/11 08:40:23;;;;;;;370.13;282.23;;;;;;;16.91;41.41;98693.00;4915582;29;20506;-50
2022/03/11 08:42:52;;;;;;;142.55;110.82;;;;;;;16.72;41.70;98692.41;4916746;29;20048;-51
2022/03/11 08:45:21;;;;;;;31.13;22.30;;;;;;;16.62;41.64;98700.19;4915380;29;20028;-50
2022/03/11 08:47:47;;;;;;;18.05;12.65;;;;;;;16.05;41.96;98693.06;4916712;29;20067;-50
2022/03/11 08:50:14;;;;;;;21.15;13.05;;;;;;;15.70;43.05;98670.13;4916644;29;20055;-49
2022/03/11 08:52:40;;;;;;;17.30;12.75;;;;;;;16.04;43.17;98682.75;4915340;29;20248;-49
2022/03/11 08:55:07;;;;;;;34.22;16.85;;;;;;;16.82;41.52;98672.44;4916471;29;20034;-50
2022/03/11 08:57:35;;;;;;;36.15;18.50;;;;;;;17.72;40.03;98668.66;4916537;29;20036;-50
2022/03/11 09:00:12;;;;;;;19.00;12.45;;;;;;;18.48;38.31;98669.75;4915220;29;20030;-49
2022/03/11 09:02:38;;;;;;;22.08;12.45;;;;;;;18.97;36.83;98669.63;4916541;29;20388;-50
2022/03/11 09:05:05;;;;;;;30.48;17.52;;;;;;;19.02;36.86;98674.19;4916406;29;20119;-51
2022/03/11 09:07:32;;;;;;;12.90;7.63;;;;;;;19.43;36.00;98659.25;4915087;29;20099;-51
2022/03/11 09:09:59;;;;;;;25.85;17.10;;;;;;;19.82;35.75;98663.44;4916280;29;20024;-50
2022/03/11 09:12:25;;;;;;;18.88;11.38;;;;;;;20.15;34.29;98659.53;4916541;29;20032;-50
2022/03/11 09:14:52;;;;;;;11.52;8.35;;;;;;;19.87;34.38;98664.25;4915919;29;20051;-50
2022/03/11 09:17:18;;;;;;;14.35;7.13;;;;;;;19.44;34.26;98660.88;4914945;29;20036;-49
2022/03/11 09:19:44;;;;;;;10.35;6.30;;;;;;;19.12;35.08;98660.97;4914800;29;20100;-50
2022/03/11 09:22:12;;;;;;;13.05;7.43;;;;;;;18.86;35.56;98658.13;4914864;29;20028;-50
2022/03/11 09:24:42;;;;;;;12.32;6.50;;;;;;;18.87;35.46;98656.25;4914795;29;20469;-50
2022/03/11 09:27:09;;;;;;;20.23;9.60;;;;;;;18.87;35.98;98659.72;4914766;29;20031;-49
2022/03/11 09:29:35;;;;;;;11.02;5.43;;;;;;;19.16;34.90;98632.78;4916054;29;20028;-50
2022/03/11 09:32:03;;;;;;;12.43;7.82;;;;;;;19.60;34.57;98648.44;4915931;29;20477;-50
2022/03/11 09:34:28;;;;;;;11.77;6.80;;;;;;;20.29;33.64;98641.97;4915286;29;20517;-51
2022/03/11 09:36:55;;;;;;;11.93;5.97;;;;;;;20.80;32.73;98640.41;4915785;29;20036;-50
2022/03/11 09:39:22;;;;;;;12.52;6.75;;;;;;;20.90;31.54;98633.19;4898908;29;20072;-51
2022/03/11 09:41:48;;;;;;;12.27;6.55;;;;;;;20.67;31.29;98609.75;4915767;29;20087;-50
2022/03/11 09:44:18;;;;;;;11.48;6.65;;;;;;;20.07;32.65;98641.41;4915883;29;20056;-51
2022/03/11 09:46:45;;;;;;;11.23;7.93;;;;;;;19.52;33.40;98641.75;4914684;29;20043;-50
2022/03/11 09:49:13;;;;;;;7.90;5.88;;;;;;;19.32;33.83;98631.00;4915809;29;20028;-50
2022/03/11 09:51:43;;;;;;;10.48;5.80;;;;;;;19.04;34.35;98625.00;4914554;29;20028;-50
2022/03/11 09:54:10;;;;;;;15.23;8.75;;;;;;;19.23;34.88;98627.22;4914518;29;20091;-50
2022/03/11 09:56:40;;;;;;;8.70;6.63;;;;;;;19.10;33.85;98623.97;4914280;29;20028;-49
2022/03/11 09:59:08;;;;;;;13.10;7.85;;;;;;;18.98;34.28;98622.56;4915687;29;20469;-50
2022/03/11 10:01:34;;;;;;;8.98;5.90;;;;;;;19.13;34.29;98625.31;4915633;29;20056;-50
2022/03/11 10:04:05;;;;;;;6.70;5.47;;;;;;;18.74;34.41;98620.25;4914276;29;20457;-50
2022/03/11 10:06:41;;;;;;;8.77;6.75;;;;;;;18.37;35.59;98618.34;4914333;29;20036;-49
2022/03/11 10:09:30;;;;;;;27.33;7.95;;;;;;;18.35;36.11;98615.16;4914288;29;20024;-50
2022/03/11 10:11:57;;;;;;;11.55;6.90;;;;;;;18.25;35.73;98610.56;4915585;29;20462;-50
2022/03/11 10:14:35;;;;;;;17.67;11.55;;;;;;;18.21;36.11;98606.81;4914100;29;20049;-50
2022/03/11 10:17:04;;;;;;;10.90;6.45;;;;;;;18.29;35.37;98614.31;4915556;29;20028;-50
2022/03/11 10:19:30;;;;;;;17.48;6.47;;;;;;;18.04;35.86;98633.47;4914249;29;20021;-49
2022/03/11 10:21:58;;;;;;;14.23;7.60;;;;;;;17.68;36.58;98618.97;4914127;29;20039;-50
2022/03/11 10:24:25;;;;;;;13.63;6.72;;;;;;;17.67;36.38;98620.03;4914179;29;20025;-50
2022/03/11 10:26:58;;;;;;;10.45;7.10;;;;;;;17.59;37.20;98610.66;4915409;29;20099;-50
2022/03/11 10:29:27;;;;;;;10.13;6.57;;;;;;;17.59;37.46;98615.97;4915481;29;20379;-51
2022/03/11 10:31:55;;;;;;;8.50;6.47;;;;;;;17.60;36.95;98611.44;4915349;29;20036;-50
2022/03/11 10:34:26;;;;;;;12.27;6.25;;;;;;;17.55;36.93;98609.53;4915380;29;20024;-50
2022/03/11 10:37:00;;;;;;;13.02;6.05;;;;;;;17.49;37.49;98598.06;4915210;29;20024;-49
2022/03/11 10:39:30;;;;;;;10.45;5.40;;;;;;;17.44;37.02;98602.50;4914107;29;20055;-50
2022/03/11 10:41:59;;;;;;;17.42;10.02;;;;;;;17.21;37.62;98608.84;4913931;29;20040;-50
2022/03/11 10:44:27;;;;;;;10.32;7.03;;;;;;;17.11;37.56;98599.69;4915543;29;20422;-50
2022/03/11 10:47:19;;;;;;;9.95;6.10;;;;;;;17.11;37.75;98605.00;4915836;29;20028;-50
2022/03/11 10:49:49;;;;;;;12.18;6.32;;;;;;;17.07;37.99;98603.91;4918917;29;20039;-49
2022/03/11 10:52:27;;;;;;;10.30;5.75;;;;;;;16.90;38.20;98600.47;4917700;29;20443;-49
2022/03/11 10:54:52;;;;;;;10.63;6.43;;;;;;;17.06;38.27;98593.53;4919024;29;20028;-49
2022/03/11 10:57:18;;;;;;;10.75;5.38;;;;;;;17.00;37.81;98590.00;4918726;29;20033;-49
2022/03/11 10:59:44;;;;;;;12.82;6.05;;;;;;;16.85;38.63;98579.19;4918673;29;20447;-50
2022/03/11 11:02:10;;;;;;;9.07;6.13;;;;;;;16.84;39.06;98578.41;4917328;29;20036;-50
2022/03/11 11:04:39;;;;;;;9.27;5.95;;;;;;;16.67;38.84;98594.28;4918625;29;20024;-50
2022/03/11 11:07:06;;;;;;;12.30;6.57;;;;;;;16.45;39.07;98586.25;4918608;29;20016;-50
2022/03/11 11:09:31;;;;;;;12.18;6.18;;;;;;;16.61;39.46;98584.66;4918503;29;20027;-50
2022/03/11 11:11:57;;;;;;;7.85;5.63;;;;;;;16.96;38.82;98588.88;4917164;29;20024;-49
2022/03/11 11:14:23;;;;;;;11.43;6.30;;;;;;;17.09;38.77;98587.75;4916974;29;20040;-49
2022/03/11 11:16:55;;;;;;;11.05;6.47;;;;;;;17.21;38.36;98577.81;4917071;29;20131;-50
2022/03/11 11:19:23;;;;;;;7.82;6.22;;;;;;;17.20;38.17;98570.91;4917161;29;20514;-50
2022/03/11 11:21:50;;;;;;;6.95;5.25;;;;;;;17.30;37.77;98578.97;4918292;29;20051;-50
2022/03/11 11:24:20;;;;;;;13.10;6.50;;;;;;;17.41;38.15;98573.81;4918294;29;20032;-50
2022/03/11 11:26:55;;;;;;;15.93;6.57;;;;;;;17.54;38.25;98566.25;4917179;29;20059;-49